Time;durP1;ratioP1;P1;durP2;ratioP2;P2;SDS_P1;SDS_P2;PMS_P1;PMS_P2;Temp;Humidity;BMP_temperature;BMP_pressure;BME280_temperature;BME280_humidity;BME280_pressure;Samples;Min_cycle;Max_cycle;Signal;HPM_P1;HPM_P2
2021/04/24 00:01:42;;;;;;;3.83;2.43;;;5.70;99.90;;;;;;5052099;28;20723;-85
2021/04/24 00:04:08;;;;;;;1.30;0.97;;;5.70;99.90;;;;;;5035839;28;20221;-84
2021/04/24 00:06:34;;;;;;;2.30;1.53;;;5.70;99.90;;;;;;5033879;28;20685;-84
2021/04/24 00:09:01;;;;;;;2.27;2.00;;;5.70;99.90;;;;;;5035872;28;20221;-84
2021/04/24 00:11:27;;;;;;;1.37;1.27;;;5.70;99.90;;;;;;5035770;28;20221;-83
2021/04/24 00:13:53;;;;;;;1.77;1.03;;;5.70;99.90;;;;;;5051246;28;20190;-84
2021/04/24 00:16:20;;;;;;;2.00;1.40;;;5.70;99.90;;;;;;5050789;28;20232;-85
2021/04/24 00:18:47;;;;;;;1.80;1.70;;;5.70;99.90;;;;;;5052759;28;20213;-84
2021/04/24 00:21:13;;;;;;;3.77;1.90;;;5.70;99.90;;;;;;5050501;28;20256;-83
2021/04/24 00:23:39;;;;;;;2.53;1.93;;;5.70;99.90;;;;;;5049917;28;20213;-85
2021/04/24 00:26:04;;;;;;;7.83;1.80;;;5.60;99.90;;;;;;5054149;28;20186;-83
2021/04/24 00:28:30;;;;;;;1.57;1.43;;;5.60;99.90;;;;;;5050476;28;20236;-84
2021/04/24 00:30:56;;;;;;;3.13;2.00;;;5.50;99.90;;;;;;5034525;28;20221;-85
2021/04/24 00:33:22;;;;;;;3.30;1.33;;;5.50;99.90;;;;;;5033116;28;20214;-83
2021/04/24 00:35:47;;;;;;;1.63;1.37;;;5.50;99.90;;;;;;5036799;28;20209;-84
2021/04/24 00:38:13;;;;;;;1.33;1.10;;;5.50;99.90;;;;;;5052905;28;20201;-83
2021/04/24 00:40:39;;;;;;;3.27;1.10;;;5.50;99.90;;;;;;5036795;28;20197;-84
2021/04/24 00:43:05;;;;;;;2.67;1.40;;;5.40;99.90;;;;;;5016718;28;20237;-83
2021/04/24 00:45:31;;;;;;;2.83;1.67;;;5.40;99.90;;;;;;5034505;28;20682;-84
2021/04/24 00:47:59;;;;;;;1.43;1.27;;;5.30;99.90;;;;;;5065643;28;20226;-84
2021/04/24 00:50:31;;;;;;;4.20;1.20;;;5.20;99.90;;;;;;5050677;28;20214;-83
2021/04/24 00:52:57;;;;;;;6.73;2.47;;;5.20;99.90;;;;;;5037286;28;20203;-85
2021/04/24 00:55:24;;;;;;;1.50;1.10;;;5.20;99.90;;;;;;5050418;28;20208;-83
2021/04/24 00:57:50;;;;;;;4.90;2.30;;;5.20;99.90;;;;;;5052604;28;20308;-84
2021/04/24 01:00:17;;;;;;;1.33;1.27;;;5.20;99.90;;;;;;5049668;28;20221;-85
2021/04/24 01:02:42;;;;;;;2.67;1.67;;;5.20;99.90;;;;;;5048432;28;20225;-84
2021/04/24 01:05:14;;;;;;;7.63;2.50;;;5.20;99.90;;;;;;5051931;28;20243;-83
2021/04/24 01:07:42;;;;;;;4.10;2.17;;;5.20;99.90;;;;;;5068648;28;20279;-84
2021/04/24 01:10:11;;;;;;;1.37;1.27;;;5.20;99.90;;;;;;5058752;28;20225;-84
2021/04/24 01:12:37;;;;;;;1.77;1.50;;;5.20;99.90;;;;;;5050188;28;20229;-83
2021/04/24 01:15:04;;;;;;;1.87;1.60;;;5.20;99.90;;;;;;5050838;28;20221;-84
2021/04/24 01:17:29;;;;;;;1.77;1.67;;;5.10;99.90;;;;;;5033782;28;20308;-83
2021/04/24 01:19:55;;;;;;;2.10;1.27;;;5.10;99.90;;;;;;5013875;28;20190;-85
2021/04/24 01:22:21;;;;;;;3.47;1.13;;;5.10;99.90;;;;;;5031116;28;20217;-82
2021/04/24 01:24:47;;;;;;;2.63;1.63;;;5.10;99.90;;;;;;5049064;28;20633;-83
2021/04/24 01:27:13;;;;;;;3.60;2.60;;;5.10;99.90;;;;;;5050142;28;20323;-82
2021/04/24 01:29:41;;;;;;;6.97;2.83;;;5.10;99.90;;;;;;5034068;28;20241;-82
2021/04/24 01:32:06;;;;;;;2.30;1.97;;;5.10;99.90;;;;;;5050440;28;20189;-82
2021/04/24 01:34:33;;;;;;;1.97;1.57;;;5.10;99.90;;;;;;5017549;28;20725;-82
2021/04/24 01:37:00;;;;;;;3.07;1.70;;;5.00;99.90;;;;;;5034615;28;21341;-81
2021/04/24 01:39:27;;;;;;;3.97;1.97;;;5.00;99.90;;;;;;5049562;28;20206;-84
2021/04/24 01:41:53;;;;;;;1.83;1.73;;;5.00;99.90;;;;;;5032482;28;20220;-82
2021/04/24 01:44:19;;;;;;;2.73;1.97;;;5.00;99.90;;;;;;5049791;28;20200;-84
2021/04/24 01:46:45;;;;;;;3.73;1.17;;;5.10;99.90;;;;;;5032981;28;20237;-83
2021/04/24 01:49:12;;;;;;;2.10;1.87;;;5.20;99.90;;;;;;5046924;28;20221;-82
2021/04/24 01:51:38;;;;;;;2.90;2.50;;;5.20;99.90;;;;;;5016585;28;20217;-82
2021/04/24 01:54:04;;;;;;;1.50;1.43;;;5.20;99.90;;;;;;5047148;28;20217;-81
2021/04/24 01:56:40;;;;;;;2.30;2.10;;;5.10;99.90;;;;;;5058398;28;20252;-83
2021/04/24 01:59:06;;;;;;;1.50;1.33;;;4.90;99.90;;;;;;5048844;28;21112;-84
2021/04/24 02:01:32;;;;;;;1.73;1.53;;;4.90;99.90;;;;;;5050263;28;20186;-82
2021/04/24 02:03:58;;;;;;;2.20;2.00;;;4.90;99.90;;;;;;5012750;28;20213;-83
2021/04/24 02:06:23;;;;;;;1.33;1.30;;;4.90;99.90;;;;;;5043795;28;20214;-84
2021/04/24 02:08:49;;;;;;;2.50;2.37;;;4.80;99.90;;;;;;5026561;28;20576;-81
2021/04/24 02:11:15;;;;;;;2.47;1.93;;;4.80;99.90;;;;;;5015985;28;20208;-81
2021/04/24 02:13:42;;;;;;;3.47;3.17;;;4.80;99.90;;;;;;5047259;28;20684;-86
2021/04/24 02:16:10;;;;;;;2.10;1.73;;;4.80;99.90;;;;;;5048560;28;20218;-82
2021/04/24 02:18:36;;;;;;;1.20;1.10;;;4.90;99.90;;;;;;5052465;28;20228;-82
2021/04/24 02:21:02;;;;;;;1.43;1.33;;;4.90;99.90;;;;;;5033809;28;20225;-80
2021/04/24 02:23:35;;;;;;;6.40;2.03;;;4.80;99.90;;;;;;5049449;28;20246;-82
2021/04/24 02:26:02;;;;;;;1.13;1.13;;;4.80;99.90;;;;;;5068557;28;20320;-82
2021/04/24 02:28:28;;;;;;;2.60;2.13;;;4.90;99.90;;;;;;5051591;28;20239;-84
2021/04/24 02:30:54;;;;;;;2.17;1.57;;;4.90;99.90;;;;;;5012488;28;20218;-82
2021/04/24 02:33:20;;;;;;;3.20;2.43;;;4.90;99.90;;;;;;5046930;28;21098;-82
2021/04/24 02:35:57;;;;;;;1.53;1.43;;;4.90;99.90;;;;;;5032760;28;20268;-82
2021/04/24 02:38:31;;;;;;;2.73;2.20;;;5.00;99.90;;;;;;5033218;28;20379;-82
2021/04/24 02:40:59;;;;;;;3.23;2.00;;;5.00;99.90;;;;;;5051333;28;20194;-83
2021/04/24 02:43:25;;;;;;;4.43;1.80;;;5.00;99.90;;;;;;5048992;28;20217;-82
2021/04/24 02:45:51;;;;;;;1.87;1.67;;;5.10;99.90;;;;;;5047992;28;21058;-82
2021/04/24 02:48:17;;;;;;;5.07;1.90;;;5.10;99.90;;;;;;5036368;28;20269;-83
2021/04/24 02:50:44;;;;;;;2.23;2.07;;;5.20;99.90;;;;;;5053178;28;20234;-83
2021/04/24 02:53:10;;;;;;;1.73;1.63;;;5.20;99.90;;;;;;5052329;28;20201;-82
2021/04/24 02:55:36;;;;;;;0.80;0.80;;;5.20;99.90;;;;;;5057138;28;20300;-82
2021/04/24 02:58:02;;;;;;;1.07;0.97;;;5.20;99.90;;;;;;5036496;28;20228;-83
2021/04/24 03:00:29;;;;;;;3.30;1.53;;;5.20;99.90;;;;;;5039912;28;20213;-83
2021/04/24 03:03:06;;;;;;;9.50;1.37;;;5.20;99.90;;;;;;5034524;28;20235;-82
2021/04/24 03:05:33;;;;;;;1.40;1.23;;;5.20;99.90;;;;;;5053406;28;20213;-82
2021/04/24 03:07:59;;;;;;;30.30;2.20;;;5.20;99.90;;;;;;5036883;28;20205;-82
2021/04/24 03:10:26;;;;;;;6.57;1.40;;;5.10;99.90;;;;;;5055521;28;20229;-82
2021/04/24 03:12:52;;;;;;;2.00;1.80;;;5.20;99.90;;;;;;5054273;28;20213;-82
2021/04/24 03:15:18;;;;;;;0.70;0.67;;;5.10;99.90;;;;;;5051430;28;20225;-83
2021/04/24 03:17:45;;;;;;;1.77;1.67;;;5.10;99.90;;;;;;5051779;28;20225;-85
2021/04/24 03:20:12;;;;;;;3.00;1.30;;;5.10;99.90;;;;;;5050236;28;20177;-84
2021/04/24 03:22:38;;;;;;;2.43;2.23;;;5.10;99.90;;;;;;5056128;28;20238;-84
2021/04/24 03:25:07;;;;;;;1.43;1.37;;;5.10;99.90;;;;;;5020633;28;20671;-83
2021/04/24 03:27:33;;;;;;;2.77;1.87;;;5.10;99.90;;;;;;5050205;28;20287;-84
2021/04/24 03:29:59;;;;;;;5.97;2.03;;;5.20;99.90;;;;;;5052184;28;20707;-83
2021/04/24 03:32:25;;;;;;;2.10;1.67;;;5.20;99.90;;;;;;5050986;28;21828;-84
2021/04/24 03:34:51;;;;;;;3.53;2.43;;;5.20;99.90;;;;;;5054232;28;20240;-84
2021/04/24 03:37:16;;;;;;;9.23;2.50;;;5.20;99.90;;;;;;5034080;28;20224;-83
2021/04/24 03:39:42;;;;;;;2.23;1.97;;;5.20;99.90;;;;;;5053007;28;21015;-83
2021/04/24 03:42:10;;;;;;;1.90;1.80;;;5.30;99.90;;;;;;5032399;28;20209;-81
2021/04/24 03:44:36;;;;;;;1.87;1.77;;;5.30;99.90;;;;;;5049677;28;20225;-83
2021/04/24 03:47:02;;;;;;;4.80;1.77;;;5.30;99.90;;;;;;5050447;28;20532;-83
2021/04/24 03:49:27;;;;;;;2.23;2.03;;;5.40;99.90;;;;;;5051084;28;20222;-82
2021/04/24 03:51:53;;;;;;;3.30;1.87;;;5.40;99.90;;;;;;5034597;28;20226;-82
2021/04/24 03:54:19;;;;;;;3.40;2.17;;;5.40;99.90;;;;;;5052510;28;20218;-83
2021/04/24 03:56:44;;;;;;;4.33;3.00;;;5.40;99.90;;;;;;5020081;28;20227;-82
2021/04/24 03:59:10;;;;;;;3.27;2.53;;;5.40;99.90;;;;;;5034163;28;20225;-82
2021/04/24 04:01:36;;;;;;;3.23;2.20;;;5.40;99.90;;;;;;5020860;28;20200;-82
2021/04/24 04:04:02;;;;;;;2.10;1.90;;;5.50;99.90;;;;;;5034525;28;20222;-83
2021/04/24 04:06:28;;;;;;;2.40;1.87;;;5.50;99.90;;;;;;5052915;28;20251;-82
2021/04/24 04:08:53;;;;;;;5.07;1.90;;;5.50;99.90;;;;;;5043782;28;20712;-81
2021/04/24 04:11:19;;;;;;;4.30;2.07;;;5.50;99.90;;;;;;5019444;28;20208;-82
2021/04/24 04:13:45;;;;;;;2.77;2.30;;;5.50;99.90;;;;;;5034745;28;20202;-81
2021/04/24 04:16:10;;;;;;;2.33;2.13;;;5.50;99.90;;;;;;5018799;28;20341;-82
2021/04/24 04:18:36;;;;;;;2.53;2.27;;;5.60;99.90;;;;;;5053366;28;20228;-82
2021/04/24 04:21:04;;;;;;;2.73;1.73;;;5.70;99.90;;;;;;5051399;28;21030;-84
2021/04/24 04:23:30;;;;;;;5.50;3.33;;;5.70;99.90;;;;;;5036538;28;20218;-84
2021/04/24 04:25:57;;;;;;;3.13;2.50;;;5.70;99.90;;;;;;5034715;28;20182;-84
2021/04/24 04:28:24;;;;;;;2.63;2.33;;;5.80;99.90;;;;;;5050857;28;20236;-84
2021/04/24 04:30:51;;;;;;;1.63;1.50;;;5.80;99.90;;;;;;5034758;28;20996;-84
2021/04/24 04:33:18;;;;;;;2.07;1.97;;;5.80;99.90;;;;;;5050192;28;20229;-82
2021/04/24 04:35:47;;;;;;;3.23;2.00;;;5.80;99.90;;;;;;5050721;28;20213;-82
2021/04/24 04:38:13;;;;;;;2.53;1.97;;;5.90;99.90;;;;;;5047643;28;20190;-82
2021/04/24 04:40:39;;;;;;;3.83;2.57;;;6.00;99.90;;;;;;5051868;28;20210;-86
2021/04/24 04:43:06;;;;;;;2.60;2.00;;;6.00;99.90;;;;;;5052951;28;20304;-82
2021/04/24 04:45:32;;;;;;;1.70;1.50;;;6.10;99.90;;;;;;5033732;28;20213;-84
2021/04/24 04:47:58;;;;;;;3.80;2.10;;;6.10;99.90;;;;;;5049053;28;20596;-84
2021/04/24 04:50:28;;;;;;;3.47;1.70;;;6.20;99.90;;;;;;5034088;28;20851;-83
2021/04/24 04:52:55;;;;;;;2.03;1.77;;;6.20;99.90;;;;;;5053759;28;20186;-82
2021/04/24 04:55:20;;;;;;;3.60;2.37;;;6.30;99.90;;;;;;5034354;28;20228;-82
2021/04/24 04:57:47;;;;;;;1.27;1.17;;;6.40;99.90;;;;;;5033360;28;20225;-86
2021/04/24 05:00:15;;;;;;;4.63;1.90;;;6.50;99.90;;;;;;5051352;28;20260;-85
2021/04/24 05:02:42;;;;;;;2.10;1.40;;;6.70;99.90;;;;;;5051165;28;20229;-84
2021/04/24 05:05:08;;;;;;;3.00;1.67;;;6.80;99.90;;;;;;5047497;28;20209;-83
2021/04/24 05:07:34;;;;;;;1.57;1.47;;;6.90;99.90;;;;;;5029612;28;20543;-81
2021/04/24 05:10:00;;;;;;;9.90;1.83;;;7.10;99.90;;;;;;5028828;28;20243;-81
2021/04/24 05:12:26;;;;;;;7.20;1.50;;;7.30;99.90;;;;;;5045079;28;20218;-87
2021/04/24 05:14:52;;;;;;;1.07;1.03;;;7.40;99.90;;;;;;5047336;28;20717;-85
2021/04/24 05:17:17;;;;;;;3.13;1.80;;;7.60;99.90;;;;;;5028119;28;20200;-87
2021/04/24 05:19:43;;;;;;;5.70;1.27;;;7.80;99.90;;;;;;5031375;28;20722;-85
2021/04/24 05:22:09;;;;;;;1.80;1.40;;;8.20;99.90;;;;;;5046612;28;20218;-87
2021/04/24 05:24:35;;;;;;;2.23;2.03;;;8.90;99.90;;;;;;5047218;28;20236;-86
2021/04/24 05:27:01;;;;;;;2.53;1.93;;;10.10;99.90;;;;;;5047217;28;20579;-85
2021/04/24 05:29:26;;;;;;;3.33;2.07;;;10.90;99.90;;;;;;5044021;28;21015;-87
2021/04/24 05:31:53;;;;;;;1.57;1.47;;;11.30;99.90;;;;;;5028804;28;20190;-87
2021/04/24 05:34:18;;;;;;;3.20;2.23;;;12.00;99.90;;;;;;5044879;28;20218;-86
2021/04/24 05:36:45;;;;;;;1.40;1.30;;;12.60;99.90;;;;;;5033260;28;21305;-88
2021/04/24 05:39:11;;;;;;;2.30;2.07;;;13.50;99.90;;;;;;5032910;28;20217;-88
2021/04/24 05:41:37;;;;;;;1.30;1.20;;;14.30;99.90;;;;;;5032516;28;20218;-83
2021/04/24 05:44:03;;;;;;;3.33;1.43;;;14.90;99.90;;;;;;5051160;28;20185;-83
2021/04/24 05:46:29;;;;;;;2.50;1.23;;;14.70;99.90;;;;;;5057382;28;20242;-82
2021/04/24 05:48:55;;;;;;;2.00;1.60;;;14.30;99.90;;;;;;5033420;28;21215;-83
2021/04/24 05:51:22;;;;;;;1.80;1.70;;;14.20;99.90;;;;;;5058194;28;20287;-84
2021/04/24 05:53:50;;;;;;;2.73;1.67;;;14.60;99.90;;;;;;5051488;28;20225;-88
2021/04/24 05:56:17;;;;;;;2.40;1.57;;;16.10;99.90;;;;;;5058746;28;20190;-86
2021/04/24 05:58:43;;;;;;;4.23;1.50;;;16.60;99.90;;;;;;5053884;28;20200;-84
2021/04/24 06:01:09;;;;;;;3.53;1.60;;;15.80;99.90;;;;;;5049078;28;20233;-85
2021/04/24 06:03:35;;;;;;;1.20;0.90;;;16.60;99.90;;;;;;5048125;28;20547;-84
2021/04/24 06:06:01;;;;;;;6.20;1.10;;;16.70;99.90;;;;;;5029462;28;20236;-84
2021/04/24 06:08:26;;;;;;;2.03;1.50;;;16.60;99.90;;;;;;5046831;28;20232;-83
2021/04/24 06:10:52;;;;;;;1.93;1.20;;;16.70;99.90;;;;;;5049947;28;20261;-83
2021/04/24 06:13:19;;;;;;;3.47;1.53;;;16.20;99.90;;;;;;5050110;28;21013;-87
2021/04/24 06:15:45;;;;;;;1.30;1.00;;;14.60;99.90;;;;;;5032450;28;20797;-85
2021/04/24 06:18:11;;;;;;;2.00;1.20;;;12.80;99.90;;;;;;5048490;28;20229;-86
2021/04/24 06:20:37;;;;;;;4.63;1.40;;;11.90;99.90;;;;;;5034098;28;20690;-85
2021/04/24 06:23:04;;;;;;;3.97;1.93;;;11.50;99.90;;;;;;5054976;28;20189;-83
2021/04/24 06:25:29;;;;;;;4.17;1.50;;;11.50;99.90;;;;;;5037325;28;21011;-84
2021/04/24 06:27:55;;;;;;;1.27;1.07;;;11.30;99.90;;;;;;5020209;28;20229;-86
2021/04/24 06:30:22;;;;;;;6.67;1.50;;;11.30;99.90;;;;;;5036843;28;20250;-84
2021/04/24 06:32:50;;;;;;;4.00;1.57;;;12.60;99.90;;;;;;5038486;28;20209;-86
2021/04/24 06:35:17;;;;;;;3.93;1.60;;;14.00;99.90;;;;;;5051799;28;20197;-86
2021/04/24 06:37:43;;;;;;;3.73;1.23;;;14.70;99.90;;;;;;5053942;28;20240;-85
2021/04/24 06:40:12;;;;;;;3.13;1.37;;;15.10;99.90;;;;;;5053220;28;20213;-87
2021/04/24 06:42:38;;;;;;;1.33;1.00;;;16.00;99.90;;;;;;5055870;28;20217;-86
2021/04/24 06:45:05;;;;;;;4.20;1.20;;;16.90;99.90;;;;;;5031519;28;20234;-85
2021/04/24 06:47:32;;;;;;;1.67;1.17;;;16.40;99.90;;;;;;5049404;28;20225;-84
2021/04/24 06:49:57;;;;;;;2.93;1.07;;;17.30;99.90;;;;;;5048688;28;20200;-88
2021/04/24 06:52:23;;;;;;;3.07;1.57;;;17.80;99.90;;;;;;5033986;28;20224;-88
2021/04/24 06:54:49;;;;;;;3.33;1.33;;;18.60;99.90;;;;;;5048650;28;20733;-85
2021/04/24 06:57:15;;;;;;;3.20;1.73;;;18.40;99.90;;;;;;5036426;28;20222;-84
2021/04/24 06:59:43;;;;;;;2.47;1.53;;;19.00;99.90;;;;;;5051314;28;20248;-86
2021/04/24 07:02:11;;;;;;;3.83;1.67;;;18.60;99.90;;;;;;5017826;28;20795;-86
2021/04/24 07:04:37;;;;;;;2.00;1.23;;;18.40;99.90;;;;;;5036928;28;20201;-89
2021/04/24 07:07:03;;;;;;;2.80;1.53;;;17.90;99.90;;;;;;5022358;28;20375;-86
2021/04/24 07:09:29;;;;;;;8.47;2.00;;;16.40;99.90;;;;;;5052979;28;20273;-85
2021/04/24 07:11:54;;;;;;;3.40;1.60;;;15.30;99.90;;;;;;5053624;28;20327;-87
2021/04/24 07:14:20;;;;;;;2.27;1.50;;;15.40;99.90;;;;;;5037149;28;20663;-87
2021/04/24 07:16:46;;;;;;;3.17;1.57;;;16.00;99.90;;;;;;5055012;28;20194;-86
2021/04/24 07:19:13;;;;;;;2.23;1.50;;;17.50;99.90;;;;;;5036954;28;20246;-90
2021/04/24 07:21:38;;;;;;;4.73;1.90;;;18.20;99.90;;;;;;5053088;28;20232;-85
2021/04/24 07:24:05;;;;;;;2.33;1.60;;;17.90;99.90;;;;;;5052398;28;20209;-88
2021/04/24 07:26:31;;;;;;;6.40;2.10;;;18.50;99.90;;;;;;5051803;28;20217;-87
2021/04/24 07:28:57;;;;;;;4.77;1.90;;;17.60;99.90;;;;;;5046406;28;20213;-85
2021/04/24 07:31:23;;;;;;;4.37;1.50;;;18.30;99.90;;;;;;5032965;28;20661;-86
2021/04/24 07:33:49;;;;;;;1.83;1.20;;;19.10;99.90;;;;;;5017995;28;20236;-85
2021/04/24 07:36:14;;;;;;;2.90;1.70;;;17.50;99.90;;;;;;5053172;28;20214;-87
2021/04/24 07:38:40;;;;;;;5.13;1.90;;;17.20;99.90;;;;;;5037289;28;20225;-87
2021/04/24 07:41:06;;;;;;;3.73;1.23;;;17.20;99.90;;;;;;5019106;28;20216;-87
2021/04/24 07:43:32;;;;;;;5.20;1.23;;;17.90;99.90;;;;;;5054059;28;20193;-85
2021/04/24 07:45:58;;;;;;;5.93;1.73;;;17.80;99.90;;;;;;5053661;28;20300;-84
2021/04/24 07:48:24;;;;;;;3.37;1.50;;;17.70;99.90;;;;;;5052904;28;20795;-87
2021/04/24 07:50:50;;;;;;;2.03;1.10;;;17.00;99.90;;;;;;5018339;28;20277;-86
2021/04/24 07:53:17;;;;;;;2.03;1.33;;;17.30;99.90;;;;;;5033794;28;20205;-87
2021/04/24 07:55:42;;;;;;;1.80;1.43;;;17.60;99.90;;;;;;5035138;28;20186;-88
2021/04/24 07:58:09;;;;;;;3.60;1.53;;;17.10;99.90;;;;;;5053767;28;20228;-87
2021/04/24 08:00:36;;;;;;;7.73;1.70;;;16.90;99.90;;;;;;5054918;28;20268;-85
2021/04/24 08:03:02;;;;;;;1.20;1.10;;;16.70;99.90;;;;;;5037115;28;20213;-86
2021/04/24 08:05:28;;;;;;;6.57;2.03;;;16.10;99.90;;;;;;5037091;28;20656;-85
2021/04/24 08:07:54;;;;;;;3.17;1.33;;;16.60;99.90;;;;;;5035472;28;20737;-85
2021/04/24 08:10:19;;;;;;;2.73;1.10;;;16.50;99.90;;;;;;5037032;28;20217;-84
2021/04/24 08:12:46;;;;;;;1.70;1.17;;;17.40;99.90;;;;;;5037687;28;20247;-86
2021/04/24 08:15:13;;;;;;;4.27;1.80;;;17.70;99.90;;;;;;5035164;28;20220;-87
2021/04/24 08:17:39;;;;;;;2.40;1.53;;;17.10;99.90;;;;;;5069467;28;20228;-85
2021/04/24 08:20:10;;;;;;;4.07;2.13;;;16.10;99.90;;;;;;5023140;28;20231;-88
2021/04/24 08:22:36;;;;;;;8.07;1.63;;;15.80;99.90;;;;;;5053417;28;20229;-85
2021/04/24 08:25:04;;;;;;;3.87;1.40;;;16.20;99.90;;;;;;5052918;28;20213;-90
2021/04/24 08:27:30;;;;;;;3.33;1.93;;;14.90;99.90;;;;;;5034401;28;20316;-87
2021/04/24 08:29:56;;;;;;;5.10;1.80;;;15.80;99.90;;;;;;5048226;28;20615;-88
2021/04/24 08:32:22;;;;;;;3.27;1.50;;;16.00;99.90;;;;;;5016404;28;20738;-89
2021/04/24 08:34:47;;;;;;;10.83;1.87;;;16.30;99.90;;;;;;5036417;28;20214;-85
2021/04/24 08:37:13;;;;;;;5.77;1.93;;;16.40;99.90;;;;;;5036355;28;20296;-89
2021/04/24 08:39:39;;;;;;;5.43;1.70;;;17.40;99.90;;;;;;5017734;28;20233;-88
2021/04/24 08:42:06;;;;;;;5.87;2.17;;;17.60;99.90;;;;;;5034066;28;20218;-87
2021/04/24 08:44:33;;;;;;;2.80;1.57;;;16.50;99.90;;;;;;5049492;28;20275;-89
2021/04/24 08:46:59;;;;;;;5.70;1.40;;;16.00;99.90;;;;;;5052266;28;20221;-85
2021/04/24 08:49:28;;;;;;;5.33;2.37;;;15.80;99.90;;;;;;5053567;28;20324;-87
2021/04/24 08:51:54;;;;;;;3.57;1.13;;;15.20;99.90;;;;;;5050953;28;20205;-85
2021/04/24 08:54:21;;;;;;;5.50;1.53;;;15.40;99.90;;;;;;5051534;28;20238;-87
2021/04/24 08:56:47;;;;;;;2.40;1.50;;;15.20;99.90;;;;;;5050355;28;20225;-85
2021/04/24 08:59:13;;;;;;;3.03;1.80;;;15.40;99.90;;;;;;5051035;28;20190;-87
2021/04/24 09:01:40;;;;;;;3.60;1.30;;;16.30;99.90;;;;;;5038479;28;20257;-92
2021/04/24 09:04:06;;;;;;;5.40;1.63;;;17.00;99.90;;;;;;5043342;28;20224;-90
2021/04/24 09:06:35;;;;;;;19.67;2.77;;;16.90;99.90;;;;;;5034570;28;20218;-90
2021/04/24 09:09:07;;;;;;;4.67;1.17;;;16.40;99.90;;;;;;5034868;28;20573;-90
2021/04/24 09:11:41;;;;;;;7.87;1.87;;;16.40;99.90;;;;;;5050366;28;20232;-86
2021/04/24 09:14:09;;;;;;;4.43;2.33;;;16.60;99.90;;;;;;5051301;28;20182;-86
2021/04/24 09:16:36;;;;;;;3.93;1.90;;;15.00;99.90;;;;;;5051958;28;20203;-85
2021/04/24 09:19:22;;;;;;;2.37;0.97;;;15.30;99.90;;;;;;5033829;28;20761;-86
2021/04/24 09:22:08;;;;;;;2.00;1.23;;;15.30;99.90;;;;;;5050812;28;20218;-88
2021/04/24 09:24:39;;;;;;;6.37;1.37;;;15.70;99.90;;;;;;5039395;28;20253;-86
2021/04/24 09:27:06;;;;;;;3.87;0.97;;;15.80;99.90;;;;;;5051628;28;21496;-87
2021/04/24 09:29:32;;;;;;;5.67;2.00;;;15.50;99.90;;;;;;5032042;28;20233;-86
2021/04/24 09:32:21;;;;;;;3.50;1.50;;;15.40;99.90;;;;;;5052776;28;20216;-88
2021/04/24 09:34:49;;;;;;;4.80;1.83;;;15.20;99.90;;;;;;5050177;28;20336;-86
2021/04/24 09:37:17;;;;;;;5.77;1.60;;;15.10;99.90;;;;;;5053162;28;20279;-87
2021/04/24 09:39:50;;;;;;;2.90;1.63;;;15.40;99.90;;;;;;5050858;28;20638;-86
2021/04/24 09:42:39;;;;;;;3.33;1.40;;;16.20;99.90;;;;;;5059949;28;20224;-87
2021/04/24 09:45:27;;;;;;;6.27;1.90;;;16.00;99.90;;;;;;5058990;28;20238;-86
2021/04/24 09:47:53;;;;;;;3.17;1.90;;;16.10;99.90;;;;;;5048941;28;20576;-88
2021/04/24 09:50:32;;;;;;;2.60;1.10;;;15.80;99.90;;;;;;5049746;28;21114;-86
2021/04/24 09:53:13;;;;;;;3.83;1.73;;;15.60;99.90;;;;;;5054892;28;20252;-87
2021/04/24 09:55:39;;;;;;;2.30;1.50;;;14.80;99.90;;;;;;5059820;28;20228;-88
2021/04/24 09:58:22;;;;;;;5.77;2.77;;;15.20;99.90;;;;;;5051799;28;20233;-89
2021/04/24 10:00:48;;;;;;;2.93;1.17;;;15.60;99.90;;;;;;5050570;28;20295;-87
2021/04/24 10:03:33;;;;;;;4.03;1.50;;;15.60;99.90;;;;;;5049416;28;20686;-87
2021/04/24 10:06:32;;;;;;;3.67;0.97;;;15.70;99.90;;;;;;5050838;28;20290;-86
2021/04/24 10:09:16;;;;;;;5.37;1.80;;;14.90;99.90;;;;;;5051164;28;20220;-86
2021/04/24 10:11:45;;;;;;;1.97;1.03;;;15.60;99.90;;;;;;5048796;28;20295;-85
2021/04/24 10:14:11;;;;;;;3.93;1.87;;;16.20;99.90;;;;;;5047662;28;20186;-86
2021/04/24 10:16:44;;;;;;;3.47;1.17;;;16.20;99.90;;;;;;5053481;28;20209;-88
2021/04/24 10:19:15;;;;;;;3.97;1.10;;;16.60;99.90;;;;;;5033857;28;20243;-86
2021/04/24 10:21:43;;;;;;;3.00;1.23;;;16.60;99.90;;;;;;5064373;28;20228;-88
2021/04/24 10:24:11;;;;;;;2.87;1.13;;;16.70;99.90;;;;;;5033347;28;20214;-84
2021/04/24 10:26:38;;;;;;;2.63;1.20;;;16.80;99.80;;;;;;5049087;28;20227;-87
2021/04/24 10:29:06;;;;;;;4.17;1.37;;;16.50;99.90;;;;;;5067677;28;20239;-85
2021/04/24 10:31:33;;;;;;;4.10;0.93;;;16.40;99.90;;;;;;5050382;28;20251;-89
2021/04/24 10:34:00;;;;;;;2.60;1.03;;;16.10;99.90;;;;;;5032262;28;20209;-86
2021/04/24 10:36:29;;;;;;;4.63;1.00;;;16.10;99.90;;;;;;5066358;28;20221;-86
2021/04/24 10:38:56;;;;;;;2.70;1.00;;;15.70;99.90;;;;;;5050369;28;20308;-88
2021/04/24 10:41:37;;;;;;;8.60;1.70;;;15.50;99.90;;;;;;5034577;28;20599;-88
2021/04/24 10:44:14;;;;;;;3.23;1.90;;;14.90;99.90;;;;;;5059361;28;20239;-88
2021/04/24 10:46:54;;;;;;;3.20;1.50;;;15.20;99.90;;;;;;5030493;28;21268;-88
2021/04/24 10:49:32;;;;;;;5.30;1.40;;;15.40;99.90;;;;;;5068536;28;20240;-89
2021/04/24 10:52:08;;;;;;;2.67;1.33;;;15.10;99.90;;;;;;5048052;28;20216;-90
2021/04/24 10:54:39;;;;;;;1.57;1.03;;;15.60;99.90;;;;;;5046578;28;20268;-85
2021/04/24 10:57:42;;;;;;;3.03;0.70;;;15.60;99.90;;;;;;5069871;28;20223;-88
2021/04/24 11:00:08;;;;;;;7.43;1.20;;;14.60;99.90;;;;;;5052973;28;20228;-87
2021/04/24 11:02:41;;;;;;;2.77;1.43;;;14.80;99.90;;;;;;5050945;28;20762;-87
2021/04/24 11:05:27;;;;;;;5.97;1.30;;;14.70;99.90;;;;;;5052476;28;20185;-87
2021/04/24 11:08:08;;;;;;;1.73;0.90;;;14.60;99.90;;;;;;5056997;28;20208;-89
2021/04/24 11:10:55;;;;;;;2.37;0.90;;;14.60;99.90;;;;;;5058171;28;20216;-88
2021/04/24 11:13:23;;;;;;;2.77;1.17;;;14.40;99.90;;;;;;5056522;28;20310;-87
2021/04/24 11:15:49;;;;;;;6.40;1.53;;;14.70;99.90;;;;;;5048367;28;20615;-87
2021/04/24 11:18:16;;;;;;;4.60;1.57;;;14.70;99.90;;;;;;5055407;28;20347;-87
2021/04/24 11:20:57;;;;;;;2.80;1.07;;;14.80;99.90;;;;;;5054189;28;20230;-85
2021/04/24 11:23:43;;;;;;;3.70;1.17;;;14.20;99.90;;;;;;5069447;28;20184;-85
2021/04/24 11:26:13;;;;;;;6.53;1.47;;;13.90;99.90;;;;;;5055231;28;20195;-85
2021/04/24 11:28:56;;;;;;;2.23;1.33;;;13.70;99.90;;;;;;5074307;28;20980;-84
2021/04/24 11:31:45;;;;;;;4.43;1.07;;;13.80;99.90;;;;;;5054601;28;20232;-86
2021/04/24 11:34:29;;;;;;;6.33;1.30;;;13.50;99.90;;;;;;5053042;28;20697;-86
2021/04/24 11:37:10;;;;;;;6.50;0.93;;;13.70;99.90;;;;;;5053912;28;20219;-87
2021/04/24 11:39:37;;;;;;;5.13;1.10;;;13.80;99.90;;;;;;5070839;28;20223;-86
2021/04/24 11:42:28;;;;;;;4.97;1.23;;;13.90;99.90;;;;;;5067696;28;20235;-85
2021/04/24 11:44:54;;;;;;;6.57;1.57;;;13.80;99.90;;;;;;5069609;28;20225;-87
2021/04/24 11:47:51;;;;;;;5.30;1.23;;;13.80;99.90;;;;;;5035243;28;20216;-86
2021/04/24 11:50:18;;;;;;;1.37;0.83;;;13.60;99.90;;;;;;5069888;28;21720;-85
2021/04/24 11:53:04;;;;;;;4.63;1.20;;;13.70;99.90;;;;;;5055987;28;20181;-84
2021/04/24 11:55:30;;;;;;;1.50;1.40;;;13.80;99.90;;;;;;5053766;28;20215;-84
2021/04/24 11:58:10;;;;;;;1.83;1.63;;;13.20;99.90;;;;;;5018546;28;20690;-88
2021/04/24 12:00:37;;;;;;;1.90;1.17;;;13.50;99.90;;;;;;5052118;28;20259;-86
2021/04/24 12:03:03;;;;;;;3.23;1.73;;;13.30;99.90;;;;;;5058167;28;20233;-85
2021/04/24 12:05:29;;;;;;;2.63;0.90;;;13.20;99.90;;;;;;5054622;28;20296;-85
2021/04/24 12:07:55;;;;;;;1.13;0.77;;;13.00;99.90;;;;;;5040162;28;20220;-87
2021/04/24 12:10:28;;;;;;;1.50;0.67;;;13.20;99.90;;;;;;5056451;28;20216;-85
2021/04/24 12:13:07;;;;;;;3.67;1.30;;;13.20;99.90;;;;;;5072078;28;20247;-86
2021/04/24 12:15:33;;;;;;;5.00;1.33;;;13.30;99.90;;;;;;5053679;28;20326;-86
2021/04/24 12:18:04;;;;;;;1.43;1.20;;;13.20;99.90;;;;;;5023374;28;20220;-85
2021/04/24 12:20:35;;;;;;;2.30;1.10;;;13.00;99.90;;;;;;5070442;28;20274;-85
2021/04/24 12:23:04;;;;;;;2.50;1.60;;;12.90;99.90;;;;;;5074112;28;20189;-86
2021/04/24 12:25:32;;;;;;;2.87;1.50;;;12.80;99.90;;;;;;5055094;28;20205;-85
2021/04/24 12:28:01;;;;;;;2.30;1.50;;;12.70;99.90;;;;;;5054962;28;20236;-84
2021/04/24 12:30:29;;;;;;;8.47;1.23;;;12.90;99.90;;;;;;5056330;28;20336;-85
2021/04/24 12:33:04;;;;;;;4.27;1.30;;;12.70;99.90;;;;;;5055701;28;20227;-86
2021/04/24 12:35:32;;;;;;;5.23;0.90;;;12.30;99.90;;;;;;5056120;28;20693;-85
2021/04/24 12:38:02;;;;;;;1.83;1.57;;;12.60;99.90;;;;;;5058103;28;20649;-85
2021/04/24 12:40:30;;;;;;;1.43;0.83;;;12.50;99.90;;;;;;5051517;28;20262;-84
2021/04/24 12:43:05;;;;;;;4.13;1.67;;;12.60;99.90;;;;;;5056060;28;20223;-84
2021/04/24 12:45:32;;;;;;;1.83;0.93;;;12.50;99.90;;;;;;5055053;28;20232;-85
2021/04/24 12:47:58;;;;;;;2.47;1.00;;;12.50;99.90;;;;;;5054387;28;20225;-84
2021/04/24 12:50:27;;;;;;;1.20;0.73;;;12.50;99.90;;;;;;5073043;28;20194;-84
2021/04/24 12:52:59;;;;;;;3.30;1.00;;;12.40;99.90;;;;;;5058291;28;20185;-90
2021/04/24 12:55:39;;;;;;;1.63;0.80;;;12.50;99.90;;;;;;5055323;28;20270;-86
2021/04/24 12:58:08;;;;;;;2.87;1.10;;;12.80;99.90;;;;;;5071843;28;20213;-87